sensor_id;sensor_type;location;lat;lon;timestamp;temperature;humidity
55436;DHT22;41307;53.142;6.430;2022-08-14T00:02:04;21.40;99.90
55436;DHT22;41307;53.142;6.430;2022-08-14T00:04:31;21.30;99.90
55436;DHT22;41307;53.142;6.430;2022-08-14T00:06:57;21.30;99.90
55436;DHT22;41307;53.142;6.430;2022-08-14T00:09:23;21.20;99.90
55436;DHT22;41307;53.142;6.430;2022-08-14T00:11:49;21.20;99.90
55436;DHT22;41307;53.142;6.430;2022-08-14T00:14:15;21.20;99.90
55436;DHT22;41307;53.142;6.430;2022-08-14T00:16:41;21.10;99.90
55436;DHT22;41307;53.142;6.430;2022-08-14T00:19:08;21.10;99.90
55436;DHT22;41307;53.142;6.430;2022-08-14T00:21:33;21.00;99.90
55436;DHT22;41307;53.142;6.430;2022-08-14T00:23:59;21.00;99.90
55436;DHT22;41307;53.142;6.430;2022-08-14T00:26:25;20.90;99.90
55436;DHT22;41307;53.142;6.430;2022-08-14T00:28:52;20.90;99.90
55436;DHT22;41307;53.142;6.430;2022-08-14T00:31:18;20.90;99.90
55436;DHT22;41307;53.142;6.430;2022-08-14T00:33:44;20.80;99.90
55436;DHT22;41307;53.142;6.430;2022-08-14T00:36:10;20.80;99.90
55436;DHT22;41307;53.142;6.430;2022-08-14T00:38:36;20.70;99.90
55436;DHT22;41307;53.142;6.430;2022-08-14T00:41:05;20.70;99.90
55436;DHT22;41307;53.142;6.430;2022-08-14T00:43:35;20.70;99.90
55436;DHT22;41307;53.142;6.430;2022-08-14T00:46:06;20.60;99.90
55436;DHT22;41307;53.142;6.430;2022-08-14T00:48:32;20.60;99.90
55436;DHT22;41307;53.142;6.430;2022-08-14T00:50:58;20.60;99.90
55436;DHT22;41307;53.142;6.430;2022-08-14T00:53:24;20.50;99.90
55436;DHT22;41307;53.142;6.430;2022-08-14T00:55:52;20.50;99.90
55436;DHT22;41307;53.142;6.430;2022-08-14T00:58:20;20.50;99.90
55436;DHT22;41307;53.142;6.430;2022-08-14T01:00:54;20.60;99.90
55436;DHT22;41307;53.142;6.430;2022-08-14T01:03:20;20.50;99.90
55436;DHT22;41307;53.142;6.430;2022-08-14T01:05:49;20.50;99.90
55436;DHT22;41307;53.142;6.430;2022-08-14T01:08:29;20.50;99.90
55436;DHT22;41307;53.142;6.430;2022-08-14T01:10:56;20.50;99.90
55436;DHT22;41307;53.142;6.430;2022-08-14T01:13:25;20.40;99.90
55436;DHT22;41307;53.142;6.430;2022-08-14T01:15:54;20.40;99.90
55436;DHT22;41307;53.142;6.430;2022-08-14T01:18:21;20.40;99.90
55436;DHT22;41307;53.142;6.430;2022-08-14T01:21:06;20.40;99.90
55436;DHT22;41307;53.142;6.430;2022-08-14T01:23:36;20.40;99.90
55436;DHT22;41307;53.142;6.430;2022-08-14T01:26:04;20.30;99.90
55436;DHT22;41307;53.142;6.430;2022-08-14T01:28:31;20.30;99.90
55436;DHT22;41307;53.142;6.430;2022-08-14T01:31:00;20.30;99.90
55436;DHT22;41307;53.142;6.430;2022-08-14T01:33:28;20.20;99.90
55436;DHT22;41307;53.142;6.430;2022-08-14T01:35:58;20.20;99.90
55436;DHT22;41307;53.142;6.430;2022-08-14T01:38:27;20.20;99.90
55436;DHT22;41307;53.142;6.430;2022-08-14T01:41:05;20.20;99.90
55436;DHT22;41307;53.142;6.430;2022-08-14T01:43:32;20.20;99.90
55436;DHT22;41307;53.142;6.430;2022-08-14T01:46:03;20.10;99.90
55436;DHT22;41307;53.142;6.430;2022-08-14T01:48:31;20.10;99.90
55436;DHT22;41307;53.142;6.430;2022-08-14T01:50:58;20.10;99.90
55436;DHT22;41307;53.142;6.430;2022-08-14T01:53:27;20.10;99.90
55436;DHT22;41307;53.142;6.430;2022-08-14T01:55:54;20.10;99.90
55436;DHT22;41307;53.142;6.430;2022-08-14T01:58:22;20.10;99.90
55436;DHT22;41307;53.142;6.430;2022-08-14T02:00:54;20.10;99.90
55436;DHT22;41307;53.142;6.430;2022-08-14T02:03:25;20.00;99.90
55436;DHT22;41307;53.142;6.430;2022-08-14T02:05:52;20.00;99.90
55436;DHT22;41307;53.142;6.430;2022-08-14T02:08:25;20.00;99.90
55436;DHT22;41307;53.142;6.430;2022-08-14T02:10:52;20.00;99.90
55436;DHT22;41307;53.142;6.430;2022-08-14T02:13:39;20.00;99.90
55436;DHT22;41307;53.142;6.430;2022-08-14T02:16:06;20.00;99.90
55436;DHT22;41307;53.142;6.430;2022-08-14T02:18:32;19.90;99.90
55436;DHT22;41307;53.142;6.430;2022-08-14T02:20:58;19.90;99.90
55436;DHT22;41307;53.142;6.430;2022-08-14T02:23:24;19.90;99.90
55436;DHT22;41307;53.142;6.430;2022-08-14T02:25:50;19.90;99.90
55436;DHT22;41307;53.142;6.430;2022-08-14T02:28:15;19.90;99.90
55436;DHT22;41307;53.142;6.430;2022-08-14T02:30:41;19.90;99.90
55436;DHT22;41307;53.142;6.430;2022-08-14T02:33:07;19.90;99.90
55436;DHT22;41307;53.142;6.430;2022-08-14T02:35:33;19.90;99.90
55436;DHT22;41307;53.142;6.430;2022-08-14T02:37:59;20.00;99.90
55436;DHT22;41307;53.142;6.430;2022-08-14T02:40:24;19.90;99.90
55436;DHT22;41307;53.142;6.430;2022-08-14T02:42:52;19.90;99.90
55436;DHT22;41307;53.142;6.430;2022-08-14T02:45:17;19.90;99.90
55436;DHT22;41307;53.142;6.430;2022-08-14T02:47:43;19.90;99.90
55436;DHT22;41307;53.142;6.430;2022-08-14T02:50:09;19.90;99.90
55436;DHT22;41307;53.142;6.430;2022-08-14T02:52:34;19.90;99.90
55436;DHT22;41307;53.142;6.430;2022-08-14T02:55:00;19.80;99.90
55436;DHT22;41307;53.142;6.430;2022-08-14T02:57:27;19.90;99.90
55436;DHT22;41307;53.142;6.430;2022-08-14T02:59:53;19.80;99.90
55436;DHT22;41307;53.142;6.430;2022-08-14T03:02:18;19.80;99.90
55436;DHT22;41307;53.142;6.430;2022-08-14T03:04:44;19.80;99.90
55436;DHT22;41307;53.142;6.430;2022-08-14T03:07:10;19.50;99.90
55436;DHT22;41307;53.142;6.430;2022-08-14T03:09:37;19.70;99.90
55436;DHT22;41307;53.142;6.430;2022-08-14T03:12:04;19.70;99.90
55436;DHT22;41307;53.142;6.430;2022-08-14T03:14:30;19.70;99.90
55436;DHT22;41307;53.142;6.430;2022-08-14T03:17:00;19.70;99.90
55436;DHT22;41307;53.142;6.430;2022-08-14T03:19:26;19.70;99.90
55436;DHT22;41307;53.142;6.430;2022-08-14T03:21:51;19.70;99.90
55436;DHT22;41307;53.142;6.430;2022-08-14T03:24:18;19.70;99.90
55436;DHT22;41307;53.142;6.430;2022-08-14T03:26:47;19.60;99.90
55436;DHT22;41307;53.142;6.430;2022-08-14T03:29:15;19.60;99.90
55436;DHT22;41307;53.142;6.430;2022-08-14T03:31:45;19.60;99.90
55436;DHT22;41307;53.142;6.430;2022-08-14T03:34:13;19.50;99.90
55436;DHT22;41307;53.142;6.430;2022-08-14T03:36:39;19.60;99.90
55436;DHT22;41307;53.142;6.430;2022-08-14T03:39:08;19.50;99.90
55436;DHT22;41307;53.142;6.430;2022-08-14T03:41:34;19.50;99.90
55436;DHT22;41307;53.142;6.430;2022-08-14T03:44:03;19.50;99.90
55436;DHT22;41307;53.142;6.430;2022-08-14T03:46:33;19.50;99.90
55436;DHT22;41307;53.142;6.430;2022-08-14T03:48:59;19.50;99.90
55436;DHT22;41307;53.142;6.430;2022-08-14T03:51:27;19.40;99.90
55436;DHT22;41307;53.142;6.430;2022-08-14T03:53:55;19.40;99.90
55436;DHT22;41307;53.142;6.430;2022-08-14T03:56:25;19.40;99.90
55436;DHT22;41307;53.142;6.430;2022-08-14T03:58:53;19.40;99.90
55436;DHT22;41307;53.142;6.430;2022-08-14T04:01:23;19.40;99.90
55436;DHT22;41307;53.142;6.430;2022-08-14T04:03:51;19.30;99.90
55436;DHT22;41307;53.142;6.430;2022-08-14T04:06:18;19.30;99.90
55436;DHT22;41307;53.142;6.430;2022-08-14T04:08:47;19.30;99.90
55436;DHT22;41307;53.142;6.430;2022-08-14T04:11:14;19.30;99.90
55436;DHT22;41307;53.142;6.430;2022-08-14T04:13:41;19.30;99.90
55436;DHT22;41307;53.142;6.430;2022-08-14T04:16:11;19.20;99.90
55436;DHT22;41307;53.142;6.430;2022-08-14T04:18:41;19.30;99.90
55436;DHT22;41307;53.142;6.430;2022-08-14T04:21:08;19.30;99.90
55436;DHT22;41307;53.142;6.430;2022-08-14T04:23:35;19.20;99.90
55436;DHT22;41307;53.142;6.430;2022-08-14T04:26:06;19.20;99.90
55436;DHT22;41307;53.142;6.430;2022-08-14T04:28:34;19.20;99.90
55436;DHT22;41307;53.142;6.430;2022-08-14T04:31:02;19.20;99.90
55436;DHT22;41307;53.142;6.430;2022-08-14T04:33:27;19.10;99.90
55436;DHT22;41307;53.142;6.430;2022-08-14T04:35:54;19.10;99.90
55436;DHT22;41307;53.142;6.430;2022-08-14T04:38:20;19.10;99.90
55436;DHT22;41307;53.142;6.430;2022-08-14T04:41:05;19.10;99.90
55436;DHT22;41307;53.142;6.430;2022-08-14T04:43:49;19.10;99.90
55436;DHT22;41307;53.142;6.430;2022-08-14T04:46:17;19.10;99.90
55436;DHT22;41307;53.142;6.430;2022-08-14T04:48:43;19.10;99.90
55436;DHT22;41307;53.142;6.430;2022-08-14T04:51:14;19.10;99.90
55436;DHT22;41307;53.142;6.430;2022-08-14T04:53:43;19.20;99.90
55436;DHT22;41307;53.142;6.430;2022-08-14T04:56:17;19.20;99.90
55436;DHT22;41307;53.142;6.430;2022-08-14T04:58:50;19.20;99.90
55436;DHT22;41307;53.142;6.430;2022-08-14T05:01:20;19.30;99.90
55436;DHT22;41307;53.142;6.430;2022-08-14T05:03:46;19.30;99.90
55436;DHT22;41307;53.142;6.430;2022-08-14T05:06:12;19.30;99.90
55436;DHT22;41307;53.142;6.430;2022-08-14T05:08:38;19.30;99.90
55436;DHT22;41307;53.142;6.430;2022-08-14T05:11:06;19.40;99.90
55436;DHT22;41307;53.142;6.430;2022-08-14T05:13:34;19.50;99.90
55436;DHT22;41307;53.142;6.430;2022-08-14T05:16:00;19.50;99.90
55436;DHT22;41307;53.142;6.430;2022-08-14T05:18:28;19.60;99.90
55436;DHT22;41307;53.142;6.430;2022-08-14T05:20:57;19.60;99.90
55436;DHT22;41307;53.142;6.430;2022-08-14T05:23:30;19.70;99.90
55436;DHT22;41307;53.142;6.430;2022-08-14T05:25:58;19.80;99.90
55436;DHT22;41307;53.142;6.430;2022-08-14T05:28:29;19.90;99.90
55436;DHT22;41307;53.142;6.430;2022-08-14T05:30:57;20.00;99.90
55436;DHT22;41307;53.142;6.430;2022-08-14T05:33:25;20.10;99.90
55436;DHT22;41307;53.142;6.430;2022-08-14T05:35:54;20.10;99.90
55436;DHT22;41307;53.142;6.430;2022-08-14T05:38:35;20.20;99.90
55436;DHT22;41307;53.142;6.430;2022-08-14T05:41:13;20.70;99.90
55436;DHT22;41307;53.142;6.430;2022-08-14T05:43:40;21.90;99.90
55436;DHT22;41307;53.142;6.430;2022-08-14T05:46:13;23.10;99.90
55436;DHT22;41307;53.142;6.430;2022-08-14T05:48:40;24.00;99.90
55436;DHT22;41307;53.142;6.430;2022-08-14T05:51:05;24.90;99.90
55436;DHT22;41307;53.142;6.430;2022-08-14T05:53:32;25.60;99.90
55436;DHT22;41307;53.142;6.430;2022-08-14T05:55:58;26.30;99.90
55436;DHT22;41307;53.142;6.430;2022-08-14T05:58:25;26.90;99.90
55436;DHT22;41307;53.142;6.430;2022-08-14T06:00:51;27.40;99.90
55436;DHT22;41307;53.142;6.430;2022-08-14T06:03:19;27.80;99.90
55436;DHT22;41307;53.142;6.430;2022-08-14T06:05:48;28.10;99.90
55436;DHT22;41307;53.142;6.430;2022-08-14T06:08:20;28.50;98.60
55436;DHT22;41307;53.142;6.430;2022-08-14T06:10:46;28.90;96.30
55436;DHT22;41307;53.142;6.430;2022-08-14T06:13:12;29.00;95.00
55436;DHT22;41307;53.142;6.430;2022-08-14T06:15:38;29.10;93.80
55436;DHT22;41307;53.142;6.430;2022-08-14T06:18:06;29.10;93.00
55436;DHT22;41307;53.142;6.430;2022-08-14T06:20:32;29.00;92.00
55436;DHT22;41307;53.142;6.430;2022-08-14T06:22:57;29.10;91.50
55436;DHT22;41307;53.142;6.430;2022-08-14T06:25:24;29.10;91.20
55436;DHT22;41307;53.142;6.430;2022-08-14T06:27:50;29.40;90.80
55436;DHT22;41307;53.142;6.430;2022-08-14T06:30:19;29.60;90.20
55436;DHT22;41307;53.142;6.430;2022-08-14T06:32:46;29.80;88.80
55436;DHT22;41307;53.142;6.430;2022-08-14T06:35:13;29.90;87.00
55436;DHT22;41307;53.142;6.430;2022-08-14T06:37:51;29.70;85.40
55436;DHT22;41307;53.142;6.430;2022-08-14T06:40:24;29.10;85.90
55436;DHT22;41307;53.142;6.430;2022-08-14T06:42:50;28.40;88.00
55436;DHT22;41307;53.142;6.430;2022-08-14T06:45:16;27.50;90.30
55436;DHT22;41307;53.142;6.430;2022-08-14T06:47:44;26.90;91.60
55436;DHT22;41307;53.142;6.430;2022-08-14T06:50:16;26.30;92.80
55436;DHT22;41307;53.142;6.430;2022-08-14T06:52:42;25.90;94.00
55436;DHT22;41307;53.142;6.430;2022-08-14T06:55:09;25.50;95.50
55436;DHT22;41307;53.142;6.430;2022-08-14T06:57:38;25.20;96.70
55436;DHT22;41307;53.142;6.430;2022-08-14T07:00:20;25.00;98.10
55436;DHT22;41307;53.142;6.430;2022-08-14T07:02:46;24.90;99.80
55436;DHT22;41307;53.142;6.430;2022-08-14T07:05:31;24.60;99.90
55436;DHT22;41307;53.142;6.430;2022-08-14T07:08:19;24.50;99.90
55436;DHT22;41307;53.142;6.430;2022-08-14T07:10:50;24.40;99.90
55436;DHT22;41307;53.142;6.430;2022-08-14T07:13:17;24.50;99.90
55436;DHT22;41307;53.142;6.430;2022-08-14T07:15:48;24.50;99.90
55436;DHT22;41307;53.142;6.430;2022-08-14T07:18:19;24.60;99.90
55436;DHT22;41307;53.142;6.430;2022-08-14T07:20:45;24.60;99.90
55436;DHT22;41307;53.142;6.430;2022-08-14T07:23:11;24.70;99.90
55436;DHT22;41307;53.142;6.430;2022-08-14T07:25:39;24.80;99.90
55436;DHT22;41307;53.142;6.430;2022-08-14T07:28:31;24.80;99.90
55436;DHT22;41307;53.142;6.430;2022-08-14T07:30:59;24.80;99.90
55436;DHT22;41307;53.142;6.430;2022-08-14T07:33:26;24.80;99.90
55436;DHT22;41307;53.142;6.430;2022-08-14T07:35:53;24.80;99.90
55436;DHT22;41307;53.142;6.430;2022-08-14T07:38:20;24.80;99.90
55436;DHT22;41307;53.142;6.430;2022-08-14T07:40:47;24.80;99.90
55436;DHT22;41307;53.142;6.430;2022-08-14T07:43:15;25.00;99.90
55436;DHT22;41307;53.142;6.430;2022-08-14T07:45:41;25.30;99.90
55436;DHT22;41307;53.142;6.430;2022-08-14T07:48:07;26.30;99.90
55436;DHT22;41307;53.142;6.430;2022-08-14T07:50:33;27.50;99.90
55436;DHT22;41307;53.142;6.430;2022-08-14T07:52:59;28.40;98.20
55436;DHT22;41307;53.142;6.430;2022-08-14T07:55:26;29.10;95.10
55436;DHT22;41307;53.142;6.430;2022-08-14T07:57:52;29.70;93.10
55436;DHT22;41307;53.142;6.430;2022-08-14T08:00:23;30.10;90.40
55436;DHT22;41307;53.142;6.430;2022-08-14T08:02:51;30.20;87.70
55436;DHT22;41307;53.142;6.430;2022-08-14T08:05:19;30.50;87.20
55436;DHT22;41307;53.142;6.430;2022-08-14T08:07:46;30.80;85.90
55436;DHT22;41307;53.142;6.430;2022-08-14T08:10:14;31.20;83.80
55436;DHT22;41307;53.142;6.430;2022-08-14T08:13:06;31.40;80.70
55436;DHT22;41307;53.142;6.430;2022-08-14T08:15:39;31.70;79.20
55436;DHT22;41307;53.142;6.430;2022-08-14T08:18:07;31.80;77.90
55436;DHT22;41307;53.142;6.430;2022-08-14T08:20:36;31.90;76.50
55436;DHT22;41307;53.142;6.430;2022-08-14T08:23:04;32.10;75.90
55436;DHT22;41307;53.142;6.430;2022-08-14T08:25:34;32.40;75.50
55436;DHT22;41307;53.142;6.430;2022-08-14T08:28:07;32.50;72.90
55436;DHT22;41307;53.142;6.430;2022-08-14T08:30:35;32.50;72.20
55436;DHT22;41307;53.142;6.430;2022-08-14T08:33:02;32.60;72.40
55436;DHT22;41307;53.142;6.430;2022-08-14T08:35:31;32.90;72.00
55436;DHT22;41307;53.142;6.430;2022-08-14T08:38:10;33.10;71.40
55436;DHT22;41307;53.142;6.430;2022-08-14T08:40:41;33.40;70.10
55436;DHT22;41307;53.142;6.430;2022-08-14T08:45:40;33.00;69.00
55436;DHT22;41307;53.142;6.430;2022-08-14T08:48:06;33.20;68.70
55436;DHT22;41307;53.142;6.430;2022-08-14T08:50:34;33.20;68.40
55436;DHT22;41307;53.142;6.430;2022-08-14T08:53:04;33.40;67.80
55436;DHT22;41307;53.142;6.430;2022-08-14T08:55:36;33.30;67.50
55436;DHT22;41307;53.142;6.430;2022-08-14T08:58:20;33.20;67.00
55436;DHT22;41307;53.142;6.430;2022-08-14T09:00:49;33.20;66.30
55436;DHT22;41307;53.142;6.430;2022-08-14T09:03:19;33.10;67.20
55436;DHT22;41307;53.142;6.430;2022-08-14T09:08:22;33.20;66.80
55436;DHT22;41307;53.142;6.430;2022-08-14T09:10:51;33.20;66.70
55436;DHT22;41307;53.142;6.430;2022-08-14T09:13:17;33.40;66.90
55436;DHT22;41307;53.142;6.430;2022-08-14T09:15:46;33.70;66.20
55436;DHT22;41307;53.142;6.430;2022-08-14T09:18:15;33.70;65.50
55436;DHT22;41307;53.142;6.430;2022-08-14T09:20:44;33.30;65.00
55436;DHT22;41307;53.142;6.430;2022-08-14T09:23:12;33.10;65.60
55436;DHT22;41307;53.142;6.430;2022-08-14T09:25:39;32.90;66.20
55436;DHT22;41307;53.142;6.430;2022-08-14T09:28:06;33.10;66.70
55436;DHT22;41307;53.142;6.430;2022-08-14T09:30:35;33.10;65.60
55436;DHT22;41307;53.142;6.430;2022-08-14T09:35:47;32.90;65.10
55436;DHT22;41307;53.142;6.430;2022-08-14T09:43:58;33.20;65.40
55436;DHT22;41307;53.142;6.430;2022-08-14T09:46:27;33.10;65.20
55436;DHT22;41307;53.142;6.430;2022-08-14T09:48:57;32.90;65.30
55436;DHT22;41307;53.142;6.430;2022-08-14T09:51:24;33.00;66.00
55436;DHT22;41307;53.142;6.430;2022-08-14T09:54:18;33.20;65.60
55436;DHT22;41307;53.142;6.430;2022-08-14T09:56:48;33.20;63.70
55436;DHT22;41307;53.142;6.430;2022-08-14T09:59:16;32.90;64.30
55436;DHT22;41307;53.142;6.430;2022-08-14T10:01:47;32.70;65.50
55436;DHT22;41307;53.142;6.430;2022-08-14T10:04:31;32.60;65.20
55436;DHT22;41307;53.142;6.430;2022-08-14T10:06:57;32.70;64.40
55436;DHT22;41307;53.142;6.430;2022-08-14T10:09:23;33.00;65.40
55436;DHT22;41307;53.142;6.430;2022-08-14T10:11:55;32.90;64.80
55436;DHT22;41307;53.142;6.430;2022-08-14T10:14:23;33.00;64.40
55436;DHT22;41307;53.142;6.430;2022-08-14T10:16:52;32.70;64.50
55436;DHT22;41307;53.142;6.430;2022-08-14T10:19:20;32.70;65.30
55436;DHT22;41307;53.142;6.430;2022-08-14T10:22:04;32.50;65.00
55436;DHT22;41307;53.142;6.430;2022-08-14T10:24:42;32.90;65.30
55436;DHT22;41307;53.142;6.430;2022-08-14T10:27:19;32.70;63.70
55436;DHT22;41307;53.142;6.430;2022-08-14T10:29:58;32.80;64.60
55436;DHT22;41307;53.142;6.430;2022-08-14T10:32:29;33.00;64.60
55436;DHT22;41307;53.142;6.430;2022-08-14T10:35:09;33.20;64.40
55436;DHT22;41307;53.142;6.430;2022-08-14T10:37:41;33.10;64.30
55436;DHT22;41307;53.142;6.430;2022-08-14T10:40:08;32.90;64.80
55436;DHT22;41307;53.142;6.430;2022-08-14T10:42:36;32.90;65.00
55436;DHT22;41307;53.142;6.430;2022-08-14T10:45:02;33.10;64.20
55436;DHT22;41307;53.142;6.430;2022-08-14T10:47:34;33.20;64.30
55436;DHT22;41307;53.142;6.430;2022-08-14T10:50:04;33.20;63.70
55436;DHT22;41307;53.142;6.430;2022-08-14T10:52:32;33.00;63.10
55436;DHT22;41307;53.142;6.430;2022-08-14T10:55:10;33.00;63.20
55436;DHT22;41307;53.142;6.430;2022-08-14T10:57:53;33.10;64.10
55436;DHT22;41307;53.142;6.430;2022-08-14T11:00:26;33.10;63.50
55436;DHT22;41307;53.142;6.430;2022-08-14T11:03:19;33.10;63.10
55436;DHT22;41307;53.142;6.430;2022-08-14T11:05:46;32.80;63.60
55436;DHT22;41307;53.142;6.430;2022-08-14T11:08:14;32.70;63.50
55436;DHT22;41307;53.142;6.430;2022-08-14T11:10:48;32.70;63.80
55436;DHT22;41307;53.142;6.430;2022-08-14T11:13:17;32.90;63.70
55436;DHT22;41307;53.142;6.430;2022-08-14T11:15:44;33.10;63.30
55436;DHT22;41307;53.142;6.430;2022-08-14T11:18:21;33.20;63.10
55436;DHT22;41307;53.142;6.430;2022-08-14T11:20:56;33.30;62.00
55436;DHT22;41307;53.142;6.430;2022-08-14T11:23:30;33.00;61.80
55436;DHT22;41307;53.142;6.430;2022-08-14T11:25:58;32.90;62.20
55436;DHT22;41307;53.142;6.430;2022-08-14T11:28:25;32.90;62.40
55436;DHT22;41307;53.142;6.430;2022-08-14T11:30:53;33.00;62.30
55436;DHT22;41307;53.142;6.430;2022-08-14T11:33:25;33.00;62.40
55436;DHT22;41307;53.142;6.430;2022-08-14T11:35:54;32.70;62.10
55436;DHT22;41307;53.142;6.430;2022-08-14T11:38:19;32.50;63.00
55436;DHT22;41307;53.142;6.430;2022-08-14T11:40:46;32.50;63.00
55436;DHT22;41307;53.142;6.430;2022-08-14T11:43:12;32.60;62.90
55436;DHT22;41307;53.142;6.430;2022-08-14T11:45:39;32.70;62.50
55436;DHT22;41307;53.142;6.430;2022-08-14T11:48:18;32.70;62.30
55436;DHT22;41307;53.142;6.430;2022-08-14T11:50:45;32.70;62.80
55436;DHT22;41307;53.142;6.430;2022-08-14T11:55:55;32.60;62.40
55436;DHT22;41307;53.142;6.430;2022-08-14T11:58:28;32.50;62.90
55436;DHT22;41307;53.142;6.430;2022-08-14T12:00:57;32.50;63.00
55436;DHT22;41307;53.142;6.430;2022-08-14T12:06:08;32.40;63.20
55436;DHT22;41307;53.142;6.430;2022-08-14T12:08:35;32.40;63.20
55436;DHT22;41307;53.142;6.430;2022-08-14T12:11:04;32.00;62.70
55436;DHT22;41307;53.142;6.430;2022-08-14T12:13:31;31.90;63.30
55436;DHT22;41307;53.142;6.430;2022-08-14T12:16:05;31.90;63.60
55436;DHT22;41307;53.142;6.430;2022-08-14T12:21:15;32.00;63.70
55436;DHT22;41307;53.142;6.430;2022-08-14T12:23:46;32.00;63.30
55436;DHT22;41307;53.142;6.430;2022-08-14T12:26:15;32.00;63.80
55436;DHT22;41307;53.142;6.430;2022-08-14T12:28:49;32.00;63.90
55436;DHT22;41307;53.142;6.430;2022-08-14T12:31:17;32.00;63.50
55436;DHT22;41307;53.142;6.430;2022-08-14T12:34:02;31.90;63.60
55436;DHT22;41307;53.142;6.430;2022-08-14T12:36:29;31.90;64.00
55436;DHT22;41307;53.142;6.430;2022-08-14T12:38:56;31.80;63.90
55436;DHT22;41307;53.142;6.430;2022-08-14T12:41:25;31.90;64.00
55436;DHT22;41307;53.142;6.430;2022-08-14T12:44:03;31.80;64.00
55436;DHT22;41307;53.142;6.430;2022-08-14T12:46:36;31.80;64.20
55436;DHT22;41307;53.142;6.430;2022-08-14T12:49:13;31.70;64.10
55436;DHT22;41307;53.142;6.430;2022-08-14T12:51:39;31.50;64.30
55436;DHT22;41307;53.142;6.430;2022-08-14T12:54:18;31.50;64.80
55436;DHT22;41307;53.142;6.430;2022-08-14T12:56:45;31.30;64.30
55436;DHT22;41307;53.142;6.430;2022-08-14T12:59:12;31.30;64.60
55436;DHT22;41307;53.142;6.430;2022-08-14T13:01:40;31.50;64.40
55436;DHT22;41307;53.142;6.430;2022-08-14T13:04:11;31.50;64.20
55436;DHT22;41307;53.142;6.430;2022-08-14T13:06:39;31.70;63.90
55436;DHT22;41307;53.142;6.430;2022-08-14T13:09:07;31.80;63.90
55436;DHT22;41307;53.142;6.430;2022-08-14T13:11:44;31.80;63.90
55436;DHT22;41307;53.142;6.430;2022-08-14T13:14:12;31.80;64.10
55436;DHT22;41307;53.142;6.430;2022-08-14T13:16:39;31.80;63.90
55436;DHT22;41307;53.142;6.430;2022-08-14T13:19:14;31.90;64.00
55436;DHT22;41307;53.142;6.430;2022-08-14T13:21:43;31.90;63.80
55436;DHT22;41307;53.142;6.430;2022-08-14T13:24:12;32.00;63.30
55436;DHT22;41307;53.142;6.430;2022-08-14T13:26:46;31.90;63.10
55436;DHT22;41307;53.142;6.430;2022-08-14T13:29:18;31.80;62.80
55436;DHT22;41307;53.142;6.430;2022-08-14T13:31:49;31.70;63.00
55436;DHT22;41307;53.142;6.430;2022-08-14T13:34:19;31.70;64.10
55436;DHT22;41307;53.142;6.430;2022-08-14T13:36:45;31.60;63.60
55436;DHT22;41307;53.142;6.430;2022-08-14T13:39:19;31.50;63.20
55436;DHT22;41307;53.142;6.430;2022-08-14T13:41:45;31.50;63.70
55436;DHT22;41307;53.142;6.430;2022-08-14T13:44:16;31.40;63.60
55436;DHT22;41307;53.142;6.430;2022-08-14T13:46:46;31.40;63.60
55436;DHT22;41307;53.142;6.430;2022-08-14T13:49:12;31.30;63.50
55436;DHT22;41307;53.142;6.430;2022-08-14T13:51:45;31.10;63.40
55436;DHT22;41307;53.142;6.430;2022-08-14T13:54:16;31.00;64.80
55436;DHT22;41307;53.142;6.430;2022-08-14T13:56:46;31.00;64.10
55436;DHT22;41307;53.142;6.430;2022-08-14T13:59:12;30.90;64.10
55436;DHT22;41307;53.142;6.430;2022-08-14T14:01:39;30.90;64.20
55436;DHT22;41307;53.142;6.430;2022-08-14T14:04:15;30.80;64.30
55436;DHT22;41307;53.142;6.430;2022-08-14T14:06:46;30.80;64.60
55436;DHT22;41307;53.142;6.430;2022-08-14T14:09:14;30.80;64.90
55436;DHT22;41307;53.142;6.430;2022-08-14T14:11:42;30.70;64.70
55436;DHT22;41307;53.142;6.430;2022-08-14T14:14:09;30.70;64.80
55436;DHT22;41307;53.142;6.430;2022-08-14T14:16:38;30.70;64.70
55436;DHT22;41307;53.142;6.430;2022-08-14T14:19:04;30.70;64.80
55436;DHT22;41307;53.142;6.430;2022-08-14T14:21:30;30.70;64.20
55436;DHT22;41307;53.142;6.430;2022-08-14T14:23:57;30.60;64.30
55436;DHT22;41307;53.142;6.430;2022-08-14T14:26:23;30.60;64.50
55436;DHT22;41307;53.142;6.430;2022-08-14T14:28:54;30.60;64.80
55436;DHT22;41307;53.142;6.430;2022-08-14T14:31:23;30.60;64.80
55436;DHT22;41307;53.142;6.430;2022-08-14T14:33:51;30.70;64.80
55436;DHT22;41307;53.142;6.430;2022-08-14T14:36:19;30.70;64.80
55436;DHT22;41307;53.142;6.430;2022-08-14T14:38:50;30.70;64.70
55436;DHT22;41307;53.142;6.430;2022-08-14T14:41:16;30.70;64.50
55436;DHT22;41307;53.142;6.430;2022-08-14T14:43:47;30.70;64.50
55436;DHT22;41307;53.142;6.430;2022-08-14T14:46:16;30.80;64.60
55436;DHT22;41307;53.142;6.430;2022-08-14T14:48:43;30.80;64.70
55436;DHT22;41307;53.142;6.430;2022-08-14T14:51:10;30.70;64.70
55436;DHT22;41307;53.142;6.430;2022-08-14T14:53:38;30.50;65.00
55436;DHT22;41307;53.142;6.430;2022-08-14T14:56:05;30.40;64.80
55436;DHT22;41307;53.142;6.430;2022-08-14T14:58:31;30.30;65.20
55436;DHT22;41307;53.142;6.430;2022-08-14T15:00:57;30.20;65.60
55436;DHT22;41307;53.142;6.430;2022-08-14T15:03:25;30.10;65.60
55436;DHT22;41307;53.142;6.430;2022-08-14T15:05:50;30.10;65.90
55436;DHT22;41307;53.142;6.430;2022-08-14T15:08:19;30.00;65.70
55436;DHT22;41307;53.142;6.430;2022-08-14T15:10:46;30.10;66.30
55436;DHT22;41307;53.142;6.430;2022-08-14T15:13:12;30.10;65.70
55436;DHT22;41307;53.142;6.430;2022-08-14T15:15:38;30.20;66.00
55436;DHT22;41307;53.142;6.430;2022-08-14T15:18:05;30.30;66.10
55436;DHT22;41307;53.142;6.430;2022-08-14T15:20:32;30.40;65.40
55436;DHT22;41307;53.142;6.430;2022-08-14T15:22:58;30.60;65.10
55436;DHT22;41307;53.142;6.430;2022-08-14T15:25:27;30.60;65.00
55436;DHT22;41307;53.142;6.430;2022-08-14T15:27:59;30.60;64.50
55436;DHT22;41307;53.142;6.430;2022-08-14T15:30:26;30.50;64.20
55436;DHT22;41307;53.142;6.430;2022-08-14T15:32:54;30.40;64.60
55436;DHT22;41307;53.142;6.430;2022-08-14T15:35:22;30.40;65.10
55436;DHT22;41307;53.142;6.430;2022-08-14T15:37:49;30.30;65.40
55436;DHT22;41307;53.142;6.430;2022-08-14T15:40:14;30.30;65.50
55436;DHT22;41307;53.142;6.430;2022-08-14T15:42:43;30.20;65.50
55436;DHT22;41307;53.142;6.430;2022-08-14T15:45:09;30.10;65.90
55436;DHT22;41307;53.142;6.430;2022-08-14T15:47:37;30.20;66.20
55436;DHT22;41307;53.142;6.430;2022-08-14T15:50:06;30.20;66.10
55436;DHT22;41307;53.142;6.430;2022-08-14T15:52:36;30.30;66.10
55436;DHT22;41307;53.142;6.430;2022-08-14T15:55:06;30.30;66.00
55436;DHT22;41307;53.142;6.430;2022-08-14T15:57:32;30.30;65.90
55436;DHT22;41307;53.142;6.430;2022-08-14T15:59:58;30.30;66.00
55436;DHT22;41307;53.142;6.430;2022-08-14T16:02:42;30.20;65.30
55436;DHT22;41307;53.142;6.430;2022-08-14T16:05:08;30.20;65.60